createdAt,value
2018-06-04T00:01:36.361Z,49.70
2018-06-04T00:04:08.545Z,49.73
2018-06-04T00:06:41.186Z,49.77
2018-06-04T00:09:12.001Z,49.20
2018-06-04T00:11:44.132Z,50.77
2018-06-04T00:14:14.799Z,50.50
2018-06-04T00:16:46.046Z,48.60
2018-06-04T00:19:16.407Z,49.73
2018-06-04T00:21:47.620Z,49.83
2018-06-04T00:24:18.589Z,50.53
2018-06-04T00:26:50.015Z,50.83
2018-06-04T00:29:20.190Z,49.53
2018-06-04T00:31:50.209Z,49.90
2018-06-04T00:34:20.334Z,50.53
2018-06-04T00:36:51.115Z,49.80
2018-06-04T00:39:24.436Z,50.50
2018-06-04T00:41:55.208Z,50.27
2018-06-04T00:44:25.314Z,50.27
2018-06-04T00:46:57.418Z,50.23
2018-06-04T00:49:27.673Z,50.87
2018-06-04T00:52:00.675Z,50.87
2018-06-04T00:54:31.926Z,50.63
2018-06-04T00:57:02.474Z,50.67
2018-06-04T00:59:32.774Z,51.17
2018-06-04T01:02:03.148Z,49.53
2018-06-04T01:04:33.528Z,50.70
2018-06-04T01:07:03.715Z,50.47
2018-06-04T01:09:34.018Z,51.10
2018-06-04T01:12:04.781Z,52.10
2018-06-04T01:14:34.991Z,49.07
2018-06-04T01:17:05.177Z,49.50
2018-06-04T01:19:36.349Z,49.23
2018-06-04T01:22:07.288Z,49.20
2018-06-04T01:24:37.708Z,50.40
2018-06-04T01:27:08.581Z,49.33
2018-06-04T01:29:38.738Z,51.17
2018-06-04T01:32:09.325Z,50.90
2018-06-04T01:34:39.579Z,50.10
2018-06-04T01:37:10.085Z,50.20
2018-06-04T01:39:40.307Z,50.27
2018-06-04T01:42:10.521Z,50.13
2018-06-04T01:44:40.955Z,50.43
2018-06-04T01:47:12.083Z,48.83
2018-06-04T01:49:42.572Z,49.97
2018-06-04T01:52:12.766Z,49.13
2018-06-04T01:54:43.454Z,50.00
2018-06-04T01:57:13.738Z,50.00
2018-06-04T01:59:44.668Z,48.07
2018-06-04T02:02:14.896Z,47.77
2018-06-04T02:04:45.026Z,47.43
2018-06-04T02:07:15.129Z,48.47
2018-06-04T02:09:45.358Z,48.27
2018-06-04T02:12:15.405Z,48.63
2018-06-04T02:14:47.142Z,48.93
2018-06-04T02:17:17.462Z,49.47
2018-06-04T02:19:47.761Z,47.97
2018-06-04T02:22:18.326Z,50.50
2018-06-04T02:24:49.574Z,49.57
2018-06-04T02:27:20.031Z,50.77
2018-06-04T02:29:50.530Z,50.83
2018-06-04T02:32:20.728Z,49.57
2018-06-04T02:34:51.222Z,50.40
2018-06-04T02:37:21.270Z,50.90
2018-06-04T02:39:51.628Z,49.57
2018-06-04T02:42:22.859Z,48.70
2018-06-04T02:44:55.142Z,49.50
2018-06-04T02:47:25.528Z,48.87
2018-06-04T02:49:56.253Z,48.93
2018-06-04T02:52:26.303Z,49.50
2018-06-04T02:54:56.519Z,50.70
2018-06-04T02:57:27.345Z,50.63
2018-06-04T02:59:59.302Z,50.30
2018-06-04T03:02:29.576Z,49.57
2018-06-04T03:05:00.435Z,49.57
2018-06-04T03:07:31.433Z,49.10
2018-06-04T03:10:02.274Z,50.60
2018-06-04T03:12:35.163Z,49.53
2018-06-04T03:15:05.718Z,50.37
2018-06-04T03:17:36.020Z,49.60
2018-06-04T03:20:06.639Z,48.50
2018-06-04T03:22:36.967Z,49.57
2018-06-04T03:25:07.781Z,48.90
2018-06-04T03:27:38.441Z,50.13
2018-06-04T03:30:08.710Z,51.07
2018-06-04T03:32:40.567Z,51.00
2018-06-04T03:35:10.905Z,49.90
2018-06-04T03:37:41.776Z,51.30
2018-06-04T03:40:11.468Z,50.33
2018-06-04T03:42:41.762Z,51.27
2018-06-04T03:45:12.227Z,51.07
2018-06-04T03:47:43.133Z,52.20
2018-06-04T03:50:15.118Z,52.33
2018-06-04T03:52:45.430Z,52.17
2018-06-04T03:55:15.671Z,50.43
2018-06-04T03:57:46.024Z,51.97
2018-06-04T04:00:16.266Z,52.70
2018-06-04T04:02:46.339Z,51.90
2018-06-04T04:05:16.713Z,51.50
2018-06-04T04:07:47.566Z,50.77
2018-06-04T04:10:19.773Z,50.87
2018-06-04T04:12:50.053Z,50.70
2018-06-04T04:15:22.027Z,51.50
2018-06-04T04:17:52.178Z,49.97
2018-06-04T04:20:23.409Z,49.57
2018-06-04T04:22:54.346Z,51.43
2018-06-04T04:25:24.572Z,51.23
2018-06-04T04:27:55.716Z,51.50
2018-06-04T04:30:26.117Z,50.27
2018-06-04T04:32:56.377Z,50.93
2018-06-04T04:35:27.343Z,51.03
2018-06-04T04:37:58.270Z,51.10
2018-06-04T04:40:28.871Z,51.63
2018-06-04T04:42:59.422Z,49.83
2018-06-04T04:45:29.606Z,50.17
2018-06-04T04:48:00.709Z,53.30
2018-06-04T04:50:31.459Z,50.73
2018-06-04T04:53:02.058Z,51.50
2018-06-04T04:55:32.479Z,52.93
2018-06-04T04:58:02.896Z,50.93
2018-06-04T05:00:33.047Z,52.27
2018-06-04T05:03:04.019Z,52.53
2018-06-04T05:05:34.041Z,51.43
2018-06-04T05:08:04.591Z,51.30
2018-06-04T05:10:34.966Z,50.60
2018-06-04T05:13:05.108Z,50.30
2018-06-04T05:15:35.268Z,51.63
2018-06-04T05:18:08.737Z,50.93
2018-06-04T05:20:40.273Z,51.30
2018-06-04T05:23:11.838Z,51.17
2018-06-04T05:25:43.038Z,50.87
2018-06-04T05:28:13.475Z,53.70
2018-06-04T05:30:44.442Z,50.90
2018-06-04T05:33:16.126Z,52.07
2018-06-04T05:35:47.359Z,51.73
2018-06-04T05:38:17.531Z,51.67
2018-06-04T05:40:48.200Z,51.63
2018-06-04T05:43:18.313Z,51.03
2018-06-04T05:45:49.405Z,50.90
2018-06-04T05:48:19.932Z,50.93
2018-06-04T05:50:50.114Z,51.17
2018-06-04T05:53:21.125Z,52.10
2018-06-04T05:55:51.578Z,50.80
2018-06-04T05:58:21.717Z,52.43
2018-06-04T06:00:52.267Z,51.27
2018-06-04T06:03:22.878Z,49.47
2018-06-04T06:05:53.079Z,50.40
2018-06-04T06:08:23.141Z,47.30
2018-06-04T06:10:54.741Z,48.87
2018-06-04T06:13:26.846Z,50.73
2018-06-04T06:15:56.881Z,50.73
2018-06-04T06:18:27.389Z,50.43
2018-06-04T06:20:57.915Z,51.53
2018-06-04T06:23:28.637Z,50.87
2018-06-04T06:25:58.832Z,50.87
2018-06-04T06:28:28.895Z,50.37
2018-06-04T06:31:00.301Z,50.93
2018-06-04T06:33:30.975Z,51.47
2018-06-04T06:36:02.038Z,52.93
2018-06-04T06:38:32.116Z,50.40
2018-06-04T06:41:02.161Z,51.50
2018-06-04T06:43:32.543Z,50.73
2018-06-04T06:46:02.657Z,52.10
2018-06-04T06:48:32.951Z,50.17
2018-06-04T06:51:03.174Z,51.27
2018-06-04T06:53:34.025Z,49.77
2018-06-04T06:56:04.248Z,51.67
2018-06-04T06:58:34.588Z,51.87
2018-06-04T07:01:04.726Z,69.47
2018-06-04T07:03:35.210Z,50.67
2018-06-04T07:06:05.455Z,51.77
2018-06-04T07:08:36.578Z,51.17
2018-06-04T07:11:06.889Z,52.13
2018-06-04T07:13:36.916Z,52.67
2018-06-04T07:16:07.701Z,50.07
2018-06-04T07:18:38.262Z,50.20
2018-06-04T07:21:08.775Z,51.27
2018-06-04T07:23:38.746Z,52.33
2018-06-04T07:26:09.734Z,51.13
2018-06-04T07:28:42.062Z,49.83
2018-06-04T07:31:13.471Z,49.87
2018-06-04T07:33:43.604Z,50.23
2018-06-04T07:36:14.108Z,49.87
2018-06-04T07:38:44.526Z,50.20
2018-06-04T07:41:15.333Z,51.67
2018-06-04T07:43:45.724Z,51.03
2018-06-04T07:46:18.601Z,51.47
2018-06-04T07:48:50.877Z,51.13
2018-06-04T07:51:21.686Z,52.53
2018-06-04T07:53:52.296Z,50.43
2018-06-04T07:56:23.207Z,49.43
2018-06-04T07:58:56.068Z,52.70
2018-06-04T08:01:26.589Z,51.17
2018-06-04T08:03:56.874Z,51.93
2018-06-04T08:06:28.336Z,49.60
2018-06-04T08:08:58.931Z,49.40
2018-06-04T08:11:29.042Z,50.37
2018-06-04T08:13:59.312Z,49.27
2018-06-04T08:16:29.421Z,50.60
2018-06-04T08:19:00.665Z,49.40
2018-06-04T08:21:31.788Z,50.80
2018-06-04T08:24:02.151Z,50.70
2018-06-04T08:26:32.481Z,51.03
2018-06-04T08:29:02.637Z,49.90
2018-06-04T08:31:34.418Z,49.00
2018-06-04T08:34:04.684Z,50.90
2018-06-04T08:36:35.120Z,50.67
2018-06-04T08:39:08.586Z,50.70
2018-06-04T08:41:39.346Z,50.93
2018-06-04T08:44:11.208Z,52.43
2018-06-04T08:46:42.408Z,52.07
2018-06-04T08:49:13.314Z,50.37
2018-06-04T08:51:43.980Z,51.47
2018-06-04T08:54:14.782Z,51.77
2018-06-04T08:56:46.674Z,51.30
2018-06-04T08:59:16.787Z,50.37
2018-06-04T09:01:47.011Z,50.10
2018-06-04T09:04:17.227Z,52.23
2018-06-04T09:06:47.685Z,51.30
2018-06-04T09:09:18.785Z,51.60
2018-06-04T09:11:51.819Z,52.00
2018-06-04T09:14:22.227Z,51.67
2018-06-04T09:16:52.613Z,50.90
2018-06-04T09:19:23.149Z,51.87
2018-06-04T09:21:54.169Z,51.53
2018-06-04T09:24:24.543Z,51.07
2018-06-04T09:26:55.783Z,49.77
2018-06-04T09:29:27.591Z,51.07
2018-06-04T09:31:57.923Z,50.57
2018-06-04T09:34:28.083Z,53.23
2018-06-04T09:37:00.572Z,51.47
2018-06-04T09:39:32.486Z,50.50
2018-06-04T09:42:04.209Z,50.10
2018-06-04T09:44:35.510Z,49.27
2018-06-04T09:47:07.032Z,48.80
2018-06-04T09:49:40.225Z,48.87
2018-06-04T09:52:13.315Z,49.47
2018-06-04T09:54:45.548Z,51.20
2018-06-04T09:57:16.648Z,49.53
2018-06-04T09:59:47.025Z,49.23
2018-06-04T10:02:18.201Z,48.73
2018-06-04T10:04:49.931Z,49.63
2018-06-04T10:07:20.871Z,49.83
2018-06-04T10:09:55.441Z,47.80
2018-06-04T10:12:26.600Z,48.00
2018-06-04T10:14:57.590Z,47.43
2018-06-04T10:17:28.437Z,47.87
2018-06-04T10:19:58.485Z,47.20
2018-06-04T10:22:29.983Z,47.53
2018-06-04T10:25:01.268Z,47.50
2018-06-04T10:27:31.839Z,45.93
2018-06-04T10:30:01.950Z,46.80
2018-06-04T10:32:35.111Z,46.10
2018-06-04T10:35:05.920Z,46.23
2018-06-04T10:37:38.741Z,46.50
2018-06-04T10:40:09.290Z,48.67
2018-06-04T10:42:39.470Z,46.03
2018-06-04T10:45:09.790Z,48.00
2018-06-04T10:47:41.755Z,47.43
2018-06-04T10:50:13.947Z,47.47
2018-06-04T10:52:44.653Z,48.50
2018-06-04T10:55:16.195Z,47.87
2018-06-04T10:57:47.202Z,48.73
2018-06-04T11:00:18.564Z,48.87
2018-06-04T11:02:48.597Z,48.47
2018-06-04T11:05:19.919Z,48.40
2018-06-04T11:07:52.149Z,48.90
2018-06-04T11:10:22.363Z,49.27
2018-06-04T11:12:53.615Z,49.00
2018-06-04T11:15:23.925Z,48.53
2018-06-04T11:17:55.876Z,50.53
2018-06-04T11:20:26.012Z,49.83
2018-06-04T11:22:56.979Z,49.67
2018-06-04T11:25:27.667Z,51.23
2018-06-04T11:27:59.198Z,52.03
2018-06-04T11:30:31.330Z,48.20
2018-06-04T11:33:02.755Z,48.40
2018-06-04T11:35:34.467Z,49.27
2018-06-04T11:38:05.765Z,48.57
2018-06-04T11:40:37.563Z,48.97
2018-06-04T11:43:09.041Z,48.60
2018-06-04T11:45:39.529Z,49.73
2018-06-04T11:48:09.854Z,49.10
2018-06-04T11:50:41.057Z,48.47
2018-06-04T11:53:12.651Z,48.60
2018-06-04T11:55:43.368Z,48.77
2018-06-04T11:58:14.561Z,49.87
2018-06-04T12:00:45.340Z,50.67
2018-06-04T12:03:16.450Z,51.07
2018-06-04T12:05:46.714Z,51.40
2018-06-04T12:08:17.436Z,49.73
2018-06-04T12:10:48.224Z,50.47
2018-06-04T12:13:21.139Z,50.77
2018-06-04T12:15:52.585Z,49.00
2018-06-04T12:18:22.577Z,49.17
2018-06-04T12:20:56.408Z,48.87
2018-06-04T12:23:26.972Z,48.63
2018-06-04T12:25:59.656Z,49.37
2018-06-04T12:28:32.646Z,48.87
2018-06-04T12:31:04.812Z,49.33
2018-06-04T12:33:34.956Z,49.13
2018-06-04T12:36:07.653Z,49.20
2018-06-04T12:38:40.760Z,48.70
2018-06-04T12:41:11.940Z,48.20
2018-06-04T12:43:43.801Z,48.07
2018-06-04T12:46:15.435Z,49.50
2018-06-04T12:48:46.649Z,48.60
2018-06-04T12:51:17.951Z,48.03
2018-06-04T12:53:50.127Z,49.23
2018-06-04T12:56:21.286Z,48.10
2018-06-04T12:58:52.760Z,48.83
2018-06-04T13:01:25.732Z,48.50
2018-06-04T13:03:56.396Z,48.33
2018-06-04T13:06:28.203Z,48.40
2018-06-04T13:08:59.598Z,48.47
2018-06-04T13:11:31.509Z,48.27
2018-06-04T13:14:03.341Z,50.13
2018-06-04T13:16:34.968Z,47.93
2018-06-04T13:19:07.097Z,48.37
2018-06-04T13:21:40.155Z,49.10
2018-06-04T13:24:10.473Z,48.13
2018-06-04T13:26:42.744Z,49.00
2018-06-04T13:29:13.411Z,48.90
2018-06-04T13:31:44.522Z,48.97
2018-06-04T13:34:17.508Z,48.77
2018-06-04T13:36:48.977Z,48.20
2018-06-04T13:39:20.917Z,50.90
2018-06-04T13:41:51.626Z,48.83
2018-06-04T13:44:23.240Z,48.30
2018-06-04T13:46:54.627Z,49.27
2018-06-04T13:49:24.749Z,50.13
2018-06-04T13:51:56.193Z,48.70
2018-06-04T13:54:27.596Z,48.20
2018-06-04T13:56:59.544Z,49.47
2018-06-04T13:59:30.558Z,48.73
2018-06-04T14:02:02.139Z,50.37
2018-06-04T14:04:32.270Z,48.70
2018-06-04T14:07:07.773Z,48.57
2018-06-04T14:09:40.201Z,48.43
2018-06-04T14:12:14.032Z,48.70
2018-06-04T14:14:46.903Z,49.20
2018-06-04T14:17:17.191Z,49.73
2018-06-04T14:19:48.982Z,48.83
2018-06-04T14:22:19.227Z,48.23
2018-06-04T14:24:51.578Z,48.93
2018-06-04T14:27:24.071Z,48.77
2018-06-04T14:29:54.772Z,50.43
2018-06-04T14:32:26.002Z,50.23
2018-06-04T14:34:57.532Z,48.33
2018-06-04T14:37:27.959Z,48.50
2018-06-04T14:39:59.248Z,49.47
2018-06-04T14:42:37.850Z,49.37
2018-06-04T14:45:08.355Z,49.60
2018-06-04T14:47:39.917Z,48.93
2018-06-04T14:50:12.073Z,49.50
2018-06-04T14:52:42.623Z,48.77
2018-06-04T14:55:14.000Z,48.93
2018-06-04T14:57:44.470Z,48.30
2018-06-04T15:00:14.597Z,48.00
2018-06-04T15:02:44.809Z,48.77
2018-06-04T15:05:15.228Z,47.27
2018-06-04T15:07:45.726Z,46.57
2018-06-04T15:10:15.924Z,47.30
2018-06-04T15:12:48.362Z,48.67
2018-06-04T15:15:19.229Z,49.30
2018-06-04T15:17:52.758Z,47.93
2018-06-04T15:20:23.736Z,47.03
2018-06-04T15:22:55.497Z,47.90
2018-06-04T15:25:28.138Z,46.70
2018-06-04T15:27:59.217Z,49.10
2018-06-04T15:30:29.591Z,46.93
2018-06-04T15:33:00.577Z,47.33
2018-06-04T15:35:32.130Z,48.20
2018-06-04T15:38:03.880Z,48.97
2018-06-04T15:40:34.057Z,47.90
2018-06-04T15:43:04.931Z,48.57
2018-06-04T15:45:35.312Z,48.40
2018-06-04T15:48:06.826Z,48.67
2018-06-04T15:50:38.321Z,48.37
2018-06-04T15:53:11.174Z,48.40
2018-06-04T15:55:42.997Z,48.73
2018-06-04T15:58:14.516Z,48.77
2018-06-04T16:00:45.777Z,48.37
2018-06-04T16:03:16.140Z,48.43
2018-06-04T16:05:47.359Z,48.37
2018-06-04T16:08:17.594Z,47.57
2018-06-04T16:10:49.183Z,48.50
2018-06-04T16:13:19.842Z,47.73
2018-06-04T16:15:50.869Z,48.00
2018-06-04T16:18:20.864Z,47.40
2018-06-04T16:20:51.221Z,48.93
2018-06-04T16:23:22.065Z,49.13
2018-06-04T16:25:53.001Z,47.87
2018-06-04T16:28:24.750Z,48.00
2018-06-04T16:30:54.950Z,47.93
2018-06-04T16:33:25.081Z,48.57
2018-06-04T16:35:55.694Z,49.50
2018-06-04T16:38:25.780Z,48.90
2018-06-04T16:40:59.364Z,48.13
2018-06-04T16:43:30.386Z,48.67
2018-06-04T16:46:01.568Z,48.63
2018-06-04T16:48:32.146Z,50.23
2018-06-04T16:51:02.603Z,48.83
2018-06-04T16:53:33.014Z,47.97
2018-06-04T16:56:03.204Z,47.87
2018-06-04T16:58:34.627Z,49.10
2018-06-04T17:01:04.783Z,48.57
2018-06-04T17:03:35.754Z,48.87
2018-06-04T17:06:06.020Z,48.37
2018-06-04T17:08:37.693Z,48.73
2018-06-04T17:11:09.632Z,48.13
2018-06-04T17:13:39.939Z,48.37
2018-06-04T17:16:10.163Z,49.47
2018-06-04T17:18:41.826Z,49.03
2018-06-04T17:21:13.357Z,48.67
2018-06-04T17:23:44.675Z,47.40
2018-06-04T17:26:15.509Z,48.67
2018-06-04T17:28:45.884Z,47.23
2018-06-04T17:31:17.449Z,48.47
2018-06-04T17:33:48.412Z,47.87
2018-06-04T17:36:19.445Z,48.03
2018-06-04T17:38:49.926Z,48.30
2018-06-04T17:41:21.265Z,48.63
2018-06-04T17:43:52.541Z,49.13
2018-06-04T17:46:23.008Z,49.20
2018-06-04T17:48:53.348Z,50.30
2018-06-04T17:51:24.460Z,49.30
2018-06-04T17:53:59.521Z,47.70
2018-06-04T17:56:33.799Z,48.77
2018-06-04T17:59:04.857Z,48.37
2018-06-04T18:01:36.662Z,48.83
2018-06-04T18:04:10.307Z,49.20
2018-06-04T18:06:47.635Z,50.23
2018-06-04T18:09:18.043Z,48.70
2018-06-04T18:11:49.644Z,50.43
2018-06-04T18:14:21.342Z,49.40
2018-06-04T18:16:52.068Z,50.47
2018-06-04T18:19:23.020Z,49.77
2018-06-04T18:21:55.257Z,49.77
2018-06-04T18:24:26.593Z,49.47
2018-06-04T18:26:57.886Z,47.83
2018-06-04T18:29:28.351Z,49.30
2018-06-04T18:31:58.982Z,49.40
2018-06-04T18:34:29.730Z,49.07
2018-06-04T18:37:00.673Z,49.20
2018-06-04T18:39:31.095Z,49.27
2018-06-04T18:42:01.526Z,51.80
2018-06-04T18:44:32.241Z,49.90
2018-06-04T18:47:02.601Z,48.70
2018-06-04T18:49:33.924Z,49.17
2018-06-04T18:52:05.653Z,51.27
2018-06-04T18:54:36.978Z,48.33
2018-06-04T18:57:07.550Z,48.63
2018-06-04T18:59:37.943Z,49.10
2018-06-04T19:02:09.165Z,47.87
2018-06-04T19:04:41.273Z,48.43
2018-06-04T19:07:12.124Z,47.57
2018-06-04T19:09:43.293Z,48.67
2018-06-04T19:12:15.364Z,48.50
2018-06-04T19:14:45.595Z,47.60
2018-06-04T19:17:16.758Z,48.77
2018-06-04T19:19:48.069Z,48.53
2018-06-04T19:22:18.105Z,48.67
2018-06-04T19:24:49.033Z,47.40
2018-06-04T19:27:19.586Z,47.13
2018-06-04T19:29:49.696Z,47.53
2018-06-04T19:32:20.020Z,48.70
2018-06-04T19:34:50.849Z,48.57
2018-06-04T19:37:22.654Z,48.03
2018-06-04T19:39:52.723Z,47.53
2018-06-04T19:42:22.957Z,47.13
2018-06-04T19:44:54.517Z,47.17
2018-06-04T19:47:24.900Z,50.00
2018-06-04T19:49:56.077Z,49.00
2018-06-04T19:52:26.227Z,48.50
2018-06-04T19:54:56.590Z,48.50
2018-06-04T19:57:26.828Z,48.00
2018-06-04T19:59:57.544Z,49.70
2018-06-04T20:02:27.780Z,47.43
2018-06-04T20:04:58.898Z,46.30
2018-06-04T20:07:29.363Z,46.37
2018-06-04T20:10:00.402Z,46.93
2018-06-04T20:12:30.864Z,46.53
2018-06-04T20:15:02.055Z,47.53
2018-06-04T20:17:32.301Z,48.80
2018-06-04T20:20:02.689Z,49.20
2018-06-04T20:22:34.474Z,46.97
2018-06-04T20:25:05.293Z,47.80
2018-06-04T20:27:35.705Z,45.37
2018-06-04T20:30:07.195Z,45.73
2018-06-04T20:32:39.779Z,45.87
2018-06-04T20:35:12.239Z,46.37
2018-06-04T20:37:42.450Z,45.70
2018-06-04T20:40:13.097Z,46.07
2018-06-04T20:42:43.701Z,46.37
2018-06-04T20:45:13.892Z,45.73
2018-06-04T20:47:44.090Z,46.63
2018-06-04T20:50:14.562Z,46.67
2018-06-04T20:52:44.239Z,46.77
2018-06-04T20:55:14.254Z,47.27
2018-06-04T20:57:44.381Z,46.60
2018-06-04T21:00:15.229Z,46.70
2018-06-04T21:02:46.073Z,47.60
2018-06-04T21:05:16.649Z,46.40
2018-06-04T21:07:46.877Z,45.00
2018-06-04T21:10:17.352Z,44.00
2018-06-04T21:12:47.559Z,45.20
2018-06-04T21:15:18.747Z,44.63
2018-06-04T21:17:49.440Z,45.73
2018-06-04T21:20:19.941Z,44.87
2018-06-04T21:22:50.731Z,46.10
2018-06-04T21:25:21.211Z,46.20
2018-06-04T21:27:51.295Z,48.23
2018-06-04T21:30:21.900Z,49.77
2018-06-04T21:32:53.131Z,47.37
2018-06-04T21:35:24.137Z,47.83
2018-06-04T21:37:54.846Z,47.77
2018-06-04T21:40:24.917Z,47.67
2018-06-04T21:42:56.110Z,47.20
2018-06-04T21:45:26.834Z,47.63
2018-06-04T21:47:58.624Z,47.97
2018-06-04T21:50:28.950Z,48.07
2018-06-04T21:52:59.697Z,47.60
2018-06-04T21:55:31.002Z,46.80
2018-06-04T21:58:02.277Z,46.07
2018-06-04T22:00:32.915Z,47.87
2018-06-04T22:03:04.024Z,48.10
2018-06-04T22:05:36.975Z,47.57
2018-06-04T22:08:09.557Z,46.33
2018-06-04T22:10:40.836Z,45.73
2018-06-04T22:13:11.651Z,47.13
2018-06-04T22:15:41.920Z,46.50
2018-06-04T22:18:12.975Z,46.70
2018-06-04T22:20:45.057Z,46.80
2018-06-04T22:23:16.769Z,46.27
2018-06-04T22:25:47.725Z,45.63
2018-06-04T22:28:20.167Z,45.87
2018-06-04T22:30:51.838Z,45.20
2018-06-04T22:33:22.690Z,45.40
2018-06-04T22:35:55.220Z,46.43
2018-06-04T22:38:25.881Z,45.97
2018-06-04T22:40:56.053Z,44.77
2018-06-04T22:43:26.686Z,45.90
2018-06-04T22:45:56.991Z,45.43
2018-06-04T22:48:28.643Z,46.07
2018-06-04T22:50:59.368Z,45.50
2018-06-04T22:53:29.703Z,45.37
2018-06-04T22:56:00.802Z,44.20
2018-06-04T22:58:31.505Z,44.73
2018-06-04T23:01:02.177Z,63.60
2018-06-04T23:03:32.568Z,43.87
2018-06-04T23:06:02.630Z,43.10
2018-06-04T23:08:32.821Z,42.50
2018-06-04T23:11:04.126Z,42.70
2018-06-04T23:13:35.335Z,42.50
2018-06-04T23:16:05.889Z,42.67
2018-06-04T23:18:36.804Z,42.80
2018-06-04T23:21:08.042Z,42.13
2018-06-04T23:23:38.200Z,43.23
2018-06-04T23:26:09.243Z,42.83
2018-06-04T23:28:40.582Z,42.27
2018-06-04T23:31:13.936Z,42.63
2018-06-04T23:33:44.213Z,43.03
2018-06-04T23:36:16.022Z,42.23
2018-06-04T23:38:46.517Z,42.67
2018-06-04T23:41:16.848Z,42.43
2018-06-04T23:43:49.206Z,43.27
2018-06-04T23:46:20.407Z,43.33
2018-06-04T23:48:50.565Z,42.67
2018-06-04T23:51:20.771Z,42.67
2018-06-04T23:53:50.841Z,42.60
2018-06-04T23:56:21.810Z,43.20
2018-06-04T23:58:51.856Z,42.67
